Main page
METAR-TAF:

METAR-TAF

Airports :

Oil platform

Euro, Netherlands

latitude: 51-59-52N, longitude: 3-16-30E, elevation: 18 m

Current weather observation

The report was made 26 minutes ago, at 17:25 UTC
Wind 12 kt from the Southeast
Temperature 13°C
Humidity 82%
Pressure 1023 hPa
Visibility 10 km or more

METAR: EHSA 151725Z AUTO 13012KT 9999 ///////// 13/10 Q1023 W11/H6

Time: 18:51 (17:51 UTC)


TAF: missing

Weather observations and forecasts of more than 4000 airports (METAR and TAF reports).

The available stations are represented by yellow and red dots on the map.

Hover mouse over dot to see the name of the station.

Then click to see weather observations and forecasts.

To change the map : click on the green buttons with a black cross to zoom in, on the green button with a dash to zoom out, or on the green arrows for adjacent maps.


METAR-TAF: